sensor_id;sensor_type;location;lat;lon;timestamp;temperature;humidity
61094;DHT22;46976;52.942;6.810;2023-10-08T00:01:08;13.50;99.90
61094;DHT22;46976;52.942;6.810;2023-10-08T00:03:38;13.50;99.90
61094;DHT22;46976;52.942;6.810;2023-10-08T00:06:04;13.40;99.90
61094;DHT22;46976;52.942;6.810;2023-10-08T00:08:35;13.40;99.90
61094;DHT22;46976;52.942;6.810;2023-10-08T00:11:01;13.40;99.90
61094;DHT22;46976;52.942;6.810;2023-10-08T00:13:35;13.40;99.90
61094;DHT22;46976;52.942;6.810;2023-10-08T00:16:06;13.40;99.90
61094;DHT22;46976;52.942;6.810;2023-10-08T00:18:35;13.40;99.90
61094;DHT22;46976;52.942;6.810;2023-10-08T00:21:01;13.40;99.90
61094;DHT22;46976;52.942;6.810;2023-10-08T00:23:36;13.40;99.90
61094;DHT22;46976;52.942;6.810;2023-10-08T00:26:08;13.40;99.90
61094;DHT22;46976;52.942;6.810;2023-10-08T00:28:34;13.40;99.90
61094;DHT22;46976;52.942;6.810;2023-10-08T00:31:02;13.40;99.90
61094;DHT22;46976;52.942;6.810;2023-10-08T00:33:37;13.40;99.90
61094;DHT22;46976;52.942;6.810;2023-10-08T00:36:03;13.40;99.90
61094;DHT22;46976;52.942;6.810;2023-10-08T00:38:44;13.40;99.90
61094;DHT22;46976;52.942;6.810;2023-10-08T00:41:13;13.40;99.90
61094;DHT22;46976;52.942;6.810;2023-10-08T00:43:40;13.40;99.90
61094;DHT22;46976;52.942;6.810;2023-10-08T00:46:07;13.30;99.90
61094;DHT22;46976;52.942;6.810;2023-10-08T00:48:48;13.30;99.90
61094;DHT22;46976;52.942;6.810;2023-10-08T00:51:15;13.30;99.90
61094;DHT22;46976;52.942;6.810;2023-10-08T00:53:51;13.30;99.90
61094;DHT22;46976;52.942;6.810;2023-10-08T00:56:18;13.20;99.90
61094;DHT22;46976;52.942;6.810;2023-10-08T00:58:45;13.20;99.90
61094;DHT22;46976;52.942;6.810;2023-10-08T01:01:19;13.20;99.90
61094;DHT22;46976;52.942;6.810;2023-10-08T01:03:46;13.20;99.90
61094;DHT22;46976;52.942;6.810;2023-10-08T01:06:12;13.10;99.90
61094;DHT22;46976;52.942;6.810;2023-10-08T01:08:46;13.10;99.90
61094;DHT22;46976;52.942;6.810;2023-10-08T01:11:21;13.10;99.90
61094;DHT22;46976;52.942;6.810;2023-10-08T01:13:56;13.10;99.90
61094;DHT22;46976;52.942;6.810;2023-10-08T01:16:24;13.10;99.90
61094;DHT22;46976;52.942;6.810;2023-10-08T01:18:52;13.20;99.90
61094;DHT22;46976;52.942;6.810;2023-10-08T01:21:19;13.10;99.90
61094;DHT22;46976;52.942;6.810;2023-10-08T01:23:57;13.10;99.90
61094;DHT22;46976;52.942;6.810;2023-10-08T01:26:26;13.10;99.90
61094;DHT22;46976;52.942;6.810;2023-10-08T01:28:54;13.10;99.90
61094;DHT22;46976;52.942;6.810;2023-10-08T01:31:20;13.10;99.90
61094;DHT22;46976;52.942;6.810;2023-10-08T01:33:46;13.10;99.90
61094;DHT22;46976;52.942;6.810;2023-10-08T01:36:22;13.10;99.90
61094;DHT22;46976;52.942;6.810;2023-10-08T01:38:49;13.10;99.90
61094;DHT22;46976;52.942;6.810;2023-10-08T01:41:15;13.10;99.90
61094;DHT22;46976;52.942;6.810;2023-10-08T01:43:54;13.10;99.90
61094;DHT22;46976;52.942;6.810;2023-10-08T01:46:20;13.10;99.90
61094;DHT22;46976;52.942;6.810;2023-10-08T01:48:47;13.10;99.90
61094;DHT22;46976;52.942;6.810;2023-10-08T01:51:19;13.10;99.90
61094;DHT22;46976;52.942;6.810;2023-10-08T01:53:54;13.10;99.90
61094;DHT22;46976;52.942;6.810;2023-10-08T01:56:24;13.10;99.90
61094;DHT22;46976;52.942;6.810;2023-10-08T01:58:50;13.10;99.90
61094;DHT22;46976;52.942;6.810;2023-10-08T02:01:22;13.10;99.90
61094;DHT22;46976;52.942;6.810;2023-10-08T02:03:48;13.10;99.90
61094;DHT22;46976;52.942;6.810;2023-10-08T02:06:14;13.10;99.90
61094;DHT22;46976;52.942;6.810;2023-10-08T02:08:41;13.10;99.90
61094;DHT22;46976;52.942;6.810;2023-10-08T02:11:07;13.10;99.90
61094;DHT22;46976;52.942;6.810;2023-10-08T02:13:33;13.10;99.90
61094;DHT22;46976;52.942;6.810;2023-10-08T02:16:00;13.10;99.90
61094;DHT22;46976;52.942;6.810;2023-10-08T02:18:25;13.10;99.90
61094;DHT22;46976;52.942;6.810;2023-10-08T02:20:51;13.20;99.90
61094;DHT22;46976;52.942;6.810;2023-10-08T02:23:18;13.20;99.90
61094;DHT22;46976;52.942;6.810;2023-10-08T02:25:43;13.20;99.90
61094;DHT22;46976;52.942;6.810;2023-10-08T02:28:10;13.20;99.90
61094;DHT22;46976;52.942;6.810;2023-10-08T02:30:41;13.10;99.90
61094;DHT22;46976;52.942;6.810;2023-10-08T02:33:08;13.10;99.90
61094;DHT22;46976;52.942;6.810;2023-10-08T02:35:43;13.10;99.90
61094;DHT22;46976;52.942;6.810;2023-10-08T02:38:13;13.10;99.90
61094;DHT22;46976;52.942;6.810;2023-10-08T02:40:39;13.00;99.90
61094;DHT22;46976;52.942;6.810;2023-10-08T02:43:10;13.00;99.90
61094;DHT22;46976;52.942;6.810;2023-10-08T02:45:37;13.00;99.90
61094;DHT22;46976;52.942;6.810;2023-10-08T02:48:10;13.00;99.90
61094;DHT22;46976;52.942;6.810;2023-10-08T02:50:39;13.00;99.90
61094;DHT22;46976;52.942;6.810;2023-10-08T02:53:05;12.90;99.90
61094;DHT22;46976;52.942;6.810;2023-10-08T02:55:37;12.90;99.90
61094;DHT22;46976;52.942;6.810;2023-10-08T02:58:08;12.90;99.90
61094;DHT22;46976;52.942;6.810;2023-10-08T03:00:43;12.90;99.90
61094;DHT22;46976;52.942;6.810;2023-10-08T03:03:08;12.90;99.90
61094;DHT22;46976;52.942;6.810;2023-10-08T03:05:51;12.90;99.90
61094;DHT22;46976;52.942;6.810;2023-10-08T03:08:19;12.80;99.90
61094;DHT22;46976;52.942;6.810;2023-10-08T03:10:47;12.80;99.90
61094;DHT22;46976;52.942;6.810;2023-10-08T03:13:16;12.80;99.90
61094;DHT22;46976;52.942;6.810;2023-10-08T03:15:43;12.80;99.90
61094;DHT22;46976;52.942;6.810;2023-10-08T03:18:44;12.80;99.90
61094;DHT22;46976;52.942;6.810;2023-10-08T03:21:15;12.80;99.90
61094;DHT22;46976;52.942;6.810;2023-10-08T03:24:07;12.80;99.90
61094;DHT22;46976;52.942;6.810;2023-10-08T03:26:49;12.80;99.90
61094;DHT22;46976;52.942;6.810;2023-10-08T03:29:21;12.80;99.90
61094;DHT22;46976;52.942;6.810;2023-10-08T03:31:46;12.80;99.90
61094;DHT22;46976;52.942;6.810;2023-10-08T03:34:12;12.80;99.90
61094;DHT22;46976;52.942;6.810;2023-10-08T03:36:39;12.90;99.90
61094;DHT22;46976;52.942;6.810;2023-10-08T03:39:13;12.90;99.90
61094;DHT22;46976;52.942;6.810;2023-10-08T03:41:40;12.90;99.90
61094;DHT22;46976;52.942;6.810;2023-10-08T03:44:07;12.90;99.90
61094;DHT22;46976;52.942;6.810;2023-10-08T03:46:40;12.90;99.90
61094;DHT22;46976;52.942;6.810;2023-10-08T03:49:09;12.90;99.90
61094;DHT22;46976;52.942;6.810;2023-10-08T03:51:53;12.90;99.90
61094;DHT22;46976;52.942;6.810;2023-10-08T03:54:22;12.90;99.90
61094;DHT22;46976;52.942;6.810;2023-10-08T03:57:01;12.90;99.90
61094;DHT22;46976;52.942;6.810;2023-10-08T03:59:30;12.90;99.90
61094;DHT22;46976;52.942;6.810;2023-10-08T04:02:03;12.90;99.90
61094;DHT22;46976;52.942;6.810;2023-10-08T04:04:39;12.90;99.90
61094;DHT22;46976;52.942;6.810;2023-10-08T04:07:24;12.90;99.90
61094;DHT22;46976;52.942;6.810;2023-10-08T04:09:50;12.80;99.90
61094;DHT22;46976;52.942;6.810;2023-10-08T04:12:24;12.90;99.90
61094;DHT22;46976;52.942;6.810;2023-10-08T04:14:52;12.80;99.90
61094;DHT22;46976;52.942;6.810;2023-10-08T04:17:21;12.80;99.90
61094;DHT22;46976;52.942;6.810;2023-10-08T04:19:48;12.80;99.90
61094;DHT22;46976;52.942;6.810;2023-10-08T04:22:13;12.80;99.90
61094;DHT22;46976;52.942;6.810;2023-10-08T04:24:43;12.70;99.90
61094;DHT22;46976;52.942;6.810;2023-10-08T04:27:09;12.80;99.90
61094;DHT22;46976;52.942;6.810;2023-10-08T04:29:35;12.70;99.90
61094;DHT22;46976;52.942;6.810;2023-10-08T04:32:05;12.70;99.90
61094;DHT22;46976;52.942;6.810;2023-10-08T04:34:35;12.70;99.90
61094;DHT22;46976;52.942;6.810;2023-10-08T04:37:01;12.70;99.90
61094;DHT22;46976;52.942;6.810;2023-10-08T04:39:28;12.70;99.90
61094;DHT22;46976;52.942;6.810;2023-10-08T04:41:58;12.80;99.90
61094;DHT22;46976;52.942;6.810;2023-10-08T04:44:28;12.80;99.90
61094;DHT22;46976;52.942;6.810;2023-10-08T04:46:57;12.80;99.90
61094;DHT22;46976;52.942;6.810;2023-10-08T04:49:30;12.80;99.90
61094;DHT22;46976;52.942;6.810;2023-10-08T04:52:02;12.80;99.90
61094;DHT22;46976;52.942;6.810;2023-10-08T04:54:39;12.80;99.90
61094;DHT22;46976;52.942;6.810;2023-10-08T04:57:07;12.80;99.90
61094;DHT22;46976;52.942;6.810;2023-10-08T04:59:44;12.70;99.90
61094;DHT22;46976;52.942;6.810;2023-10-08T05:02:12;12.70;99.90
61094;DHT22;46976;52.942;6.810;2023-10-08T05:04:42;12.70;99.90
61094;DHT22;46976;52.942;6.810;2023-10-08T05:07:31;12.70;99.90
61094;DHT22;46976;52.942;6.810;2023-10-08T05:10:26;12.70;99.90
61094;DHT22;46976;52.942;6.810;2023-10-08T05:12:53;12.70;99.90
61094;DHT22;46976;52.942;6.810;2023-10-08T05:15:33;12.70;99.90
61094;DHT22;46976;52.942;6.810;2023-10-08T05:18:03;12.70;99.90
61094;DHT22;46976;52.942;6.810;2023-10-08T05:20:55;12.70;99.90
61094;DHT22;46976;52.942;6.810;2023-10-08T05:23:40;12.70;99.90
61094;DHT22;46976;52.942;6.810;2023-10-08T05:26:19;12.70;99.90
61094;DHT22;46976;52.942;6.810;2023-10-08T05:28:56;12.80;99.90
61094;DHT22;46976;52.942;6.810;2023-10-08T05:31:48;12.70;99.90
61094;DHT22;46976;52.942;6.810;2023-10-08T05:34:18;12.70;99.90
61094;DHT22;46976;52.942;6.810;2023-10-08T05:36:48;12.70;99.90
61094;DHT22;46976;52.942;6.810;2023-10-08T05:39:46;12.70;99.90
61094;DHT22;46976;52.942;6.810;2023-10-08T05:42:21;12.60;99.90
61094;DHT22;46976;52.942;6.810;2023-10-08T05:44:57;12.60;99.90
61094;DHT22;46976;52.942;6.810;2023-10-08T05:47:35;12.60;99.90
61094;DHT22;46976;52.942;6.810;2023-10-08T05:50:02;12.60;99.90
61094;DHT22;46976;52.942;6.810;2023-10-08T05:52:44;12.60;99.90
61094;DHT22;46976;52.942;6.810;2023-10-08T05:55:18;12.60;99.90
61094;DHT22;46976;52.942;6.810;2023-10-08T05:58:04;12.60;99.90
61094;DHT22;46976;52.942;6.810;2023-10-08T06:00:47;12.70;99.90
61094;DHT22;46976;52.942;6.810;2023-10-08T06:03:19;12.70;99.90
61094;DHT22;46976;52.942;6.810;2023-10-08T06:06:23;12.70;99.90
61094;DHT22;46976;52.942;6.810;2023-10-08T06:08:51;12.60;99.90
61094;DHT22;46976;52.942;6.810;2023-10-08T06:11:35;12.70;99.90
61094;DHT22;46976;52.942;6.810;2023-10-08T06:14:22;12.70;99.90
61094;DHT22;46976;52.942;6.810;2023-10-08T06:17:07;12.70;99.90
61094;DHT22;46976;52.942;6.810;2023-10-08T06:19:49;12.70;99.90
61094;DHT22;46976;52.942;6.810;2023-10-08T06:22:15;12.70;99.90
61094;DHT22;46976;52.942;6.810;2023-10-08T06:24:41;12.70;99.90
61094;DHT22;46976;52.942;6.810;2023-10-08T06:27:07;12.70;99.90
61094;DHT22;46976;52.942;6.810;2023-10-08T06:29:32;12.70;99.90
61094;DHT22;46976;52.942;6.810;2023-10-08T06:31:59;12.70;99.90
61094;DHT22;46976;52.942;6.810;2023-10-08T06:34:31;12.80;99.90
61094;DHT22;46976;52.942;6.810;2023-10-08T06:36:59;12.80;99.90
61094;DHT22;46976;52.942;6.810;2023-10-08T06:39:25;12.90;99.90
61094;DHT22;46976;52.942;6.810;2023-10-08T06:42:20;12.80;99.90
61094;DHT22;46976;52.942;6.810;2023-10-08T06:44:46;12.80;99.90
61094;DHT22;46976;52.942;6.810;2023-10-08T06:47:13;12.80;99.90
61094;DHT22;46976;52.942;6.810;2023-10-08T06:49:44;12.90;99.90
61094;DHT22;46976;52.942;6.810;2023-10-08T06:52:10;12.90;99.90
61094;DHT22;46976;52.942;6.810;2023-10-08T06:54:39;13.00;99.90
61094;DHT22;46976;52.942;6.810;2023-10-08T06:57:04;13.00;99.90
61094;DHT22;46976;52.942;6.810;2023-10-08T06:59:39;13.00;99.90
61094;DHT22;46976;52.942;6.810;2023-10-08T07:02:08;13.10;99.90
61094;DHT22;46976;52.942;6.810;2023-10-08T07:04:35;13.20;99.90
61094;DHT22;46976;52.942;6.810;2023-10-08T07:07:00;13.30;99.90
61094;DHT22;46976;52.942;6.810;2023-10-08T07:09:26;13.30;99.90
61094;DHT22;46976;52.942;6.810;2023-10-08T07:11:52;13.40;99.90
61094;DHT22;46976;52.942;6.810;2023-10-08T07:14:25;13.50;99.90
61094;DHT22;46976;52.942;6.810;2023-10-08T07:16:59;13.50;99.90
61094;DHT22;46976;52.942;6.810;2023-10-08T07:19:26;13.50;99.90
61094;DHT22;46976;52.942;6.810;2023-10-08T07:22:02;13.50;99.90
61094;DHT22;46976;52.942;6.810;2023-10-08T07:24:47;13.50;99.90
61094;DHT22;46976;52.942;6.810;2023-10-08T07:27:19;13.60;99.90
61094;DHT22;46976;52.942;6.810;2023-10-08T07:29:55;13.60;99.90
61094;DHT22;46976;52.942;6.810;2023-10-08T07:32:21;13.70;99.90
61094;DHT22;46976;52.942;6.810;2023-10-08T07:34:46;13.80;99.90
61094;DHT22;46976;52.942;6.810;2023-10-08T07:37:12;13.80;99.90
61094;DHT22;46976;52.942;6.810;2023-10-08T07:39:39;13.90;99.90
61094;DHT22;46976;52.942;6.810;2023-10-08T07:42:12;13.90;99.90
61094;DHT22;46976;52.942;6.810;2023-10-08T07:44:38;14.00;99.90
61094;DHT22;46976;52.942;6.810;2023-10-08T07:47:05;14.00;99.90
61094;DHT22;46976;52.942;6.810;2023-10-08T07:49:35;14.10;99.90
61094;DHT22;46976;52.942;6.810;2023-10-08T07:52:02;14.20;99.90
61094;DHT22;46976;52.942;6.810;2023-10-08T07:54:31;14.20;99.90
61094;DHT22;46976;52.942;6.810;2023-10-08T07:57:03;14.20;99.90
61094;DHT22;46976;52.942;6.810;2023-10-08T07:59:44;14.20;99.90
61094;DHT22;46976;52.942;6.810;2023-10-08T08:02:12;14.20;99.90
61094;DHT22;46976;52.942;6.810;2023-10-08T08:04:39;14.20;99.90
61094;DHT22;46976;52.942;6.810;2023-10-08T08:07:06;14.30;99.90
61094;DHT22;46976;52.942;6.810;2023-10-08T08:09:32;14.40;99.90
61094;DHT22;46976;52.942;6.810;2023-10-08T08:12:07;14.50;99.90
61094;DHT22;46976;52.942;6.810;2023-10-08T08:14:38;14.50;99.90
61094;DHT22;46976;52.942;6.810;2023-10-08T08:17:07;14.60;99.90
61094;DHT22;46976;52.942;6.810;2023-10-08T08:19:40;14.60;99.90
61094;DHT22;46976;52.942;6.810;2023-10-08T08:22:06;14.60;99.90
61094;DHT22;46976;52.942;6.810;2023-10-08T08:24:31;14.60;99.90
61094;DHT22;46976;52.942;6.810;2023-10-08T08:27:01;14.50;99.90
61094;DHT22;46976;52.942;6.810;2023-10-08T08:29:34;14.60;99.90
61094;DHT22;46976;52.942;6.810;2023-10-08T08:32:13;14.50;99.90
61094;DHT22;46976;52.942;6.810;2023-10-08T08:34:42;14.40;99.90
61094;DHT22;46976;52.942;6.810;2023-10-08T08:37:11;14.30;99.90
61094;DHT22;46976;52.942;6.810;2023-10-08T08:39:37;14.30;99.90
61094;DHT22;46976;52.942;6.810;2023-10-08T08:42:03;14.30;99.90
61094;DHT22;46976;52.942;6.810;2023-10-08T08:44:35;14.30;99.90
61094;DHT22;46976;52.942;6.810;2023-10-08T08:47:05;14.30;99.90
61094;DHT22;46976;52.942;6.810;2023-10-08T08:49:36;14.40;99.90
61094;DHT22;46976;52.942;6.810;2023-10-08T08:52:05;14.50;99.90
61094;DHT22;46976;52.942;6.810;2023-10-08T08:54:31;14.50;99.90
61094;DHT22;46976;52.942;6.810;2023-10-08T08:56:57;14.70;99.90
61094;DHT22;46976;52.942;6.810;2023-10-08T08:59:26;14.80;99.90
61094;DHT22;46976;52.942;6.810;2023-10-08T09:01:53;14.90;99.90
61094;DHT22;46976;52.942;6.810;2023-10-08T09:04:28;15.00;99.90
61094;DHT22;46976;52.942;6.810;2023-10-08T09:06:55;15.00;99.90
61094;DHT22;46976;52.942;6.810;2023-10-08T09:09:21;15.00;99.90
61094;DHT22;46976;52.942;6.810;2023-10-08T09:11:52;15.00;99.90
61094;DHT22;46976;52.942;6.810;2023-10-08T09:14:22;15.00;99.90
61094;DHT22;46976;52.942;6.810;2023-10-08T09:16:48;15.10;99.90
61094;DHT22;46976;52.942;6.810;2023-10-08T09:19:15;15.10;99.90
61094;DHT22;46976;52.942;6.810;2023-10-08T09:21:59;15.20;99.90
61094;DHT22;46976;52.942;6.810;2023-10-08T09:24:24;15.20;99.90
61094;DHT22;46976;52.942;6.810;2023-10-08T09:26:52;15.20;99.90
61094;DHT22;46976;52.942;6.810;2023-10-08T09:29:17;15.40;99.90
61094;DHT22;46976;52.942;6.810;2023-10-08T09:31:55;15.50;99.90
61094;DHT22;46976;52.942;6.810;2023-10-08T09:34:30;15.50;99.90
61094;DHT22;46976;52.942;6.810;2023-10-08T09:36:57;15.60;99.90
61094;DHT22;46976;52.942;6.810;2023-10-08T09:39:25;15.60;99.90
61094;DHT22;46976;52.942;6.810;2023-10-08T09:41:57;15.70;99.90
61094;DHT22;46976;52.942;6.810;2023-10-08T09:44:24;15.80;99.90
61094;DHT22;46976;52.942;6.810;2023-10-08T09:46:57;15.90;99.90
61094;DHT22;46976;52.942;6.810;2023-10-08T09:50:12;16.00;99.90
61094;DHT22;46976;52.942;6.810;2023-10-08T09:52:24;16.00;99.90
61094;DHT22;46976;52.942;6.810;2023-10-08T09:55:00;16.00;99.90
61094;DHT22;46976;52.942;6.810;2023-10-08T09:57:29;16.00;99.90
61094;DHT22;46976;52.942;6.810;2023-10-08T09:59:55;16.10;99.90
61094;DHT22;46976;52.942;6.810;2023-10-08T10:02:23;16.10;99.90
61094;DHT22;46976;52.942;6.810;2023-10-08T10:04:53;16.20;99.90
61094;DHT22;46976;52.942;6.810;2023-10-08T10:07:20;16.40;99.90
61094;DHT22;46976;52.942;6.810;2023-10-08T10:09:50;16.40;99.90
61094;DHT22;46976;52.942;6.810;2023-10-08T10:12:25;16.40;99.90
61094;DHT22;46976;52.942;6.810;2023-10-08T10:14:54;16.60;99.90
61094;DHT22;46976;52.942;6.810;2023-10-08T10:17:23;16.70;99.90
61094;DHT22;46976;52.942;6.810;2023-10-08T10:19:57;16.70;99.90
61094;DHT22;46976;52.942;6.810;2023-10-08T10:22:29;16.80;99.90
61094;DHT22;46976;52.942;6.810;2023-10-08T10:24:57;17.00;99.90
61094;DHT22;46976;52.942;6.810;2023-10-08T10:27:23;17.00;99.90
61094;DHT22;46976;52.942;6.810;2023-10-08T10:29:49;16.80;99.90
61094;DHT22;46976;52.942;6.810;2023-10-08T10:32:15;16.80;99.90
61094;DHT22;46976;52.942;6.810;2023-10-08T10:34:45;16.90;99.90
61094;DHT22;46976;52.942;6.810;2023-10-08T10:37:19;17.10;99.90
61094;DHT22;46976;52.942;6.810;2023-10-08T10:39:55;17.30;99.90
61094;DHT22;46976;52.942;6.810;2023-10-08T10:42:24;17.30;99.90
61094;DHT22;46976;52.942;6.810;2023-10-08T10:44:52;17.40;99.90
61094;DHT22;46976;52.942;6.810;2023-10-08T10:47:19;17.50;99.90
61094;DHT22;46976;52.942;6.810;2023-10-08T10:49:52;17.60;99.90
61094;DHT22;46976;52.942;6.810;2023-10-08T10:52:40;17.60;99.90
61094;DHT22;46976;52.942;6.810;2023-10-08T10:55:19;17.60;99.90
61094;DHT22;46976;52.942;6.810;2023-10-08T10:57:48;17.60;99.90
61094;DHT22;46976;52.942;6.810;2023-10-08T11:00:30;17.70;99.90
61094;DHT22;46976;52.942;6.810;2023-10-08T11:02:56;17.80;99.90
61094;DHT22;46976;52.942;6.810;2023-10-08T11:05:34;17.80;99.90
61094;DHT22;46976;52.942;6.810;2023-10-08T11:08:04;17.80;99.90
61094;DHT22;46976;52.942;6.810;2023-10-08T11:10:36;17.80;99.90
61094;DHT22;46976;52.942;6.810;2023-10-08T11:13:06;17.90;99.90
61094;DHT22;46976;52.942;6.810;2023-10-08T11:15:40;18.00;99.90
61094;DHT22;46976;52.942;6.810;2023-10-08T11:18:14;18.00;99.90
61094;DHT22;46976;52.942;6.810;2023-10-08T11:20:43;18.10;99.90
61094;DHT22;46976;52.942;6.810;2023-10-08T11:23:10;18.10;99.20
61094;DHT22;46976;52.942;6.810;2023-10-08T11:25:55;18.10;97.90
61094;DHT22;46976;52.942;6.810;2023-10-08T11:28:26;18.20;95.60
61094;DHT22;46976;52.942;6.810;2023-10-08T11:30:53;18.40;96.20
61094;DHT22;46976;52.942;6.810;2023-10-08T11:33:19;18.40;95.80
61094;DHT22;46976;52.942;6.810;2023-10-08T11:35:58;18.50;96.00
61094;DHT22;46976;52.942;6.810;2023-10-08T11:38:24;18.60;94.20
61094;DHT22;46976;52.942;6.810;2023-10-08T11:40:50;18.70;94.60
61094;DHT22;46976;52.942;6.810;2023-10-08T11:43:23;18.80;94.20
61094;DHT22;46976;52.942;6.810;2023-10-08T11:45:48;18.90;91.90
61094;DHT22;46976;52.942;6.810;2023-10-08T11:48:15;19.00;86.80
61094;DHT22;46976;52.942;6.810;2023-10-08T11:50:47;19.00;84.50
61094;DHT22;46976;52.942;6.810;2023-10-08T11:53:16;18.90;76.40
61094;DHT22;46976;52.942;6.810;2023-10-08T11:55:45;18.80;74.30
61094;DHT22;46976;52.942;6.810;2023-10-08T11:58:13;18.70;81.50
61094;DHT22;46976;52.942;6.810;2023-10-08T12:00:44;18.70;80.60
61094;DHT22;46976;52.942;6.810;2023-10-08T12:03:14;18.80;80.10
61094;DHT22;46976;52.942;6.810;2023-10-08T12:05:49;18.80;82.10
61094;DHT22;46976;52.942;6.810;2023-10-08T12:08:24;18.80;80.90
61094;DHT22;46976;52.942;6.810;2023-10-08T12:10:50;18.80;80.00
61094;DHT22;46976;52.942;6.810;2023-10-08T12:13:20;18.90;82.20
61094;DHT22;46976;52.942;6.810;2023-10-08T12:15:55;18.90;83.00
61094;DHT22;46976;52.942;6.810;2023-10-08T12:18:38;19.10;80.80
61094;DHT22;46976;52.942;6.810;2023-10-08T12:21:08;19.20;77.70
61094;DHT22;46976;52.942;6.810;2023-10-08T12:23:40;19.50;74.40
61094;DHT22;46976;52.942;6.810;2023-10-08T12:26:06;19.50;76.20
61094;DHT22;46976;52.942;6.810;2023-10-08T12:28:36;19.60;69.40
61094;DHT22;46976;52.942;6.810;2023-10-08T12:31:04;19.50;70.20
61094;DHT22;46976;52.942;6.810;2023-10-08T12:33:30;19.50;69.70
61094;DHT22;46976;52.942;6.810;2023-10-08T12:35:57;19.40;66.40
61094;DHT22;46976;52.942;6.810;2023-10-08T12:38:24;19.30;65.60
61094;DHT22;46976;52.942;6.810;2023-10-08T12:40:53;19.20;69.30
61094;DHT22;46976;52.942;6.810;2023-10-08T12:45:47;19.10;71.90
61094;DHT22;46976;52.942;6.810;2023-10-08T12:48:21;19.10;71.80
61094;DHT22;46976;52.942;6.810;2023-10-08T12:50:47;19.00;72.40
61094;DHT22;46976;52.942;6.810;2023-10-08T12:53:22;19.00;74.50
61094;DHT22;46976;52.942;6.810;2023-10-08T12:56:06;18.90;75.40
61094;DHT22;46976;52.942;6.810;2023-10-08T12:58:36;19.00;73.60
61094;DHT22;46976;52.942;6.810;2023-10-08T13:01:07;18.90;72.20
61094;DHT22;46976;52.942;6.810;2023-10-08T13:03:38;18.90;73.50
61094;DHT22;46976;52.942;6.810;2023-10-08T13:06:10;18.80;75.50
61094;DHT22;46976;52.942;6.810;2023-10-08T13:08:56;18.80;69.30
61094;DHT22;46976;52.942;6.810;2023-10-08T13:11:24;18.60;73.10
61094;DHT22;46976;52.942;6.810;2023-10-08T13:13:53;18.60;74.80
61094;DHT22;46976;52.942;6.810;2023-10-08T13:16:22;18.70;76.70
61094;DHT22;46976;52.942;6.810;2023-10-08T13:18:49;18.70;77.10
61094;DHT22;46976;52.942;6.810;2023-10-08T13:21:15;18.70;77.40
61094;DHT22;46976;52.942;6.810;2023-10-08T13:23:42;18.70;75.10
61094;DHT22;46976;52.942;6.810;2023-10-08T13:26:08;18.60;70.10
61094;DHT22;46976;52.942;6.810;2023-10-08T13:28:36;18.60;70.50
61094;DHT22;46976;52.942;6.810;2023-10-08T13:31:05;18.50;74.40
61094;DHT22;46976;52.942;6.810;2023-10-08T13:33:38;18.50;75.20
61094;DHT22;46976;52.942;6.810;2023-10-08T13:36:09;18.50;73.80
61094;DHT22;46976;52.942;6.810;2023-10-08T13:38:35;18.50;71.30
61094;DHT22;46976;52.942;6.810;2023-10-08T13:41:06;18.40;71.40
61094;DHT22;46976;52.942;6.810;2023-10-08T13:43:40;18.30;74.00
61094;DHT22;46976;52.942;6.810;2023-10-08T13:46:07;18.10;76.20
61094;DHT22;46976;52.942;6.810;2023-10-08T13:48:39;18.00;79.40
61094;DHT22;46976;52.942;6.810;2023-10-08T13:51:06;17.90;84.60
61094;DHT22;46976;52.942;6.810;2023-10-08T13:53:40;17.80;88.60
61094;DHT22;46976;52.942;6.810;2023-10-08T13:56:06;17.70;90.20
61094;DHT22;46976;52.942;6.810;2023-10-08T13:58:32;17.70;88.60
61094;DHT22;46976;52.942;6.810;2023-10-08T14:01:01;17.70;90.00
61094;DHT22;46976;52.942;6.810;2023-10-08T14:03:30;17.70;89.90
61094;DHT22;46976;52.942;6.810;2023-10-08T14:05:59;17.70;89.70
61094;DHT22;46976;52.942;6.810;2023-10-08T14:08:33;17.70;91.00
61094;DHT22;46976;52.942;6.810;2023-10-08T14:10:59;17.70;91.60
61094;DHT22;46976;52.942;6.810;2023-10-08T14:13:32;17.60;93.50
61094;DHT22;46976;52.942;6.810;2023-10-08T14:16:01;17.70;94.90
61094;DHT22;46976;52.942;6.810;2023-10-08T14:18:34;17.80;95.60
61094;DHT22;46976;52.942;6.810;2023-10-08T14:21:09;17.80;95.50
61094;DHT22;46976;52.942;6.810;2023-10-08T14:23:39;17.80;93.70
61094;DHT22;46976;52.942;6.810;2023-10-08T14:26:08;17.80;93.00
61094;DHT22;46976;52.942;6.810;2023-10-08T14:28:37;17.80;93.10
61094;DHT22;46976;52.942;6.810;2023-10-08T14:31:09;17.70;94.40
61094;DHT22;46976;52.942;6.810;2023-10-08T14:33:42;17.70;93.60
61094;DHT22;46976;52.942;6.810;2023-10-08T14:36:09;17.70;93.20
61094;DHT22;46976;52.942;6.810;2023-10-08T14:38:54;17.60;94.60
61094;DHT22;46976;52.942;6.810;2023-10-08T14:41:38;17.60;93.90
61094;DHT22;46976;52.942;6.810;2023-10-08T14:44:22;17.50;92.00
61094;DHT22;46976;52.942;6.810;2023-10-08T14:46:49;17.50;92.20
61094;DHT22;46976;52.942;6.810;2023-10-08T14:49:16;17.40;93.60
61094;DHT22;46976;52.942;6.810;2023-10-08T14:51:42;17.40;94.50
61094;DHT22;46976;52.942;6.810;2023-10-08T14:54:08;17.40;94.50
61094;DHT22;46976;52.942;6.810;2023-10-08T14:56:35;17.30;95.10
61094;DHT22;46976;52.942;6.810;2023-10-08T14:59:03;17.40;95.50
61094;DHT22;46976;52.942;6.810;2023-10-08T15:01:29;17.40;96.20
61094;DHT22;46976;52.942;6.810;2023-10-08T15:03:59;17.30;95.70
61094;DHT22;46976;52.942;6.810;2023-10-08T15:06:32;17.30;94.70
61094;DHT22;46976;52.942;6.810;2023-10-08T15:08:58;17.30;95.00
61094;DHT22;46976;52.942;6.810;2023-10-08T15:11:24;17.20;95.80
61094;DHT22;46976;52.942;6.810;2023-10-08T15:13:56;17.20;96.60
61094;DHT22;46976;52.942;6.810;2023-10-08T15:16:22;17.10;96.50
61094;DHT22;46976;52.942;6.810;2023-10-08T15:18:52;17.10;96.60
61094;DHT22;46976;52.942;6.810;2023-10-08T15:21:19;17.00;97.10
61094;DHT22;46976;52.942;6.810;2023-10-08T15:23:45;17.00;97.00
61094;DHT22;46976;52.942;6.810;2023-10-08T15:26:11;17.00;97.00
61094;DHT22;46976;52.942;6.810;2023-10-08T15:28:38;16.90;97.00
61094;DHT22;46976;52.942;6.810;2023-10-08T15:31:05;16.90;97.10
61094;DHT22;46976;52.942;6.810;2023-10-08T15:33:32;16.90;97.50
61094;DHT22;46976;52.942;6.810;2023-10-08T15:35:58;16.80;97.50
61094;DHT22;46976;52.942;6.810;2023-10-08T15:38:25;16.70;98.50
61094;DHT22;46976;52.942;6.810;2023-10-08T15:40:51;16.70;98.30
61094;DHT22;46976;52.942;6.810;2023-10-08T15:43:17;16.70;98.50
61094;DHT22;46976;52.942;6.810;2023-10-08T15:45:43;16.60;99.50
61094;DHT22;46976;52.942;6.810;2023-10-08T15:48:10;16.60;99.90
61094;DHT22;46976;52.942;6.810;2023-10-08T15:50:36;16.60;99.90
61094;DHT22;46976;52.942;6.810;2023-10-08T15:53:02;16.50;99.90
61094;DHT22;46976;52.942;6.810;2023-10-08T15:55:27;16.50;99.90